createdAt,value
2024-02-21T00:01:55.125Z,12.50
2024-02-21T00:04:22.332Z,11.38
2024-02-21T00:06:49.549Z,12.40
2024-02-21T00:09:16.590Z,11.35
2024-02-21T00:11:43.716Z,11.52
2024-02-21T00:14:11.312Z,10.75
2024-02-21T00:16:38.383Z,10.93
2024-02-21T00:19:05.847Z,11.88
2024-02-21T00:21:33.222Z,11.88
2024-02-21T00:24:00.340Z,11.93
2024-02-21T00:26:27.365Z,13.23
2024-02-21T00:28:54.726Z,12.88
2024-02-21T00:31:21.964Z,11.93
2024-02-21T00:33:49.029Z,13.65
2024-02-21T00:36:16.672Z,12.57
2024-02-21T00:38:43.808Z,12.45
2024-02-21T00:41:10.911Z,13.55
2024-02-21T00:43:38.164Z,12.35
2024-02-21T00:46:07.395Z,12.05
2024-02-21T00:48:35.259Z,13.43
2024-02-21T00:51:02.601Z,13.35
2024-02-21T00:53:29.691Z,13.95
2024-02-21T00:55:58.209Z,12.95
2024-02-21T00:58:25.315Z,12.10
2024-02-21T01:00:52.397Z,12.63
2024-02-21T01:03:19.545Z,12.98
2024-02-21T01:05:47.220Z,13.43
2024-02-21T01:08:14.472Z,12.27
2024-02-21T01:10:41.571Z,12.15
2024-02-21T01:13:08.839Z,13.07
2024-02-21T01:15:36.613Z,12.05
2024-02-21T01:18:04.185Z,12.55
2024-02-21T01:20:31.305Z,12.63
2024-02-21T01:22:58.613Z,10.02
2024-02-21T01:25:25.771Z,10.15
2024-02-21T01:27:53.124Z,9.80
2024-02-21T01:30:20.206Z,9.50
2024-02-21T01:32:47.276Z,10.15
2024-02-21T01:35:14.511Z,10.20
2024-02-21T01:37:41.740Z,9.60
2024-02-21T01:40:09.603Z,9.70
2024-02-21T01:42:41.110Z,9.68
2024-02-21T01:45:08.527Z,8.50
2024-02-21T01:47:36.636Z,9.98
2024-02-21T01:50:04.651Z,12.20
2024-02-21T01:52:32.229Z,13.18
2024-02-21T01:54:59.546Z,13.82
2024-02-21T01:57:26.864Z,14.80
2024-02-21T01:59:54.130Z,12.60
2024-02-21T02:02:22.167Z,11.07
2024-02-21T02:04:49.599Z,12.57
2024-02-21T02:07:17.099Z,13.05
2024-02-21T02:09:44.742Z,12.70
2024-02-21T02:12:11.885Z,12.45
2024-02-21T02:14:39.003Z,11.50
2024-02-21T02:17:06.661Z,12.30
2024-02-21T02:19:33.892Z,13.52
2024-02-21T02:22:10.921Z,12.75
2024-02-21T02:24:38.075Z,12.13
2024-02-21T02:27:05.206Z,12.10
2024-02-21T02:29:34.164Z,13.05
2024-02-21T02:32:01.405Z,13.52
2024-02-21T02:34:28.653Z,13.93
2024-02-21T02:36:56.046Z,13.98
2024-02-21T02:39:23.138Z,13.82
2024-02-21T02:41:50.191Z,14.57
2024-02-21T02:44:17.628Z,15.70
2024-02-21T02:46:44.861Z,13.35
2024-02-21T02:49:12.173Z,13.75
2024-02-21T02:51:43.843Z,12.10
2024-02-21T02:54:11.561Z,12.70
2024-02-21T02:56:38.661Z,12.35
2024-02-21T02:59:05.893Z,12.88
2024-02-21T03:01:35.782Z,13.23
2024-02-21T03:04:03.627Z,13.48
2024-02-21T03:06:30.777Z,12.25
2024-02-21T03:08:57.967Z,12.13
2024-02-21T03:11:30.673Z,12.73
2024-02-21T03:13:58.462Z,11.70
2024-02-21T03:16:25.980Z,11.90
2024-02-21T03:18:53.096Z,11.82
2024-02-21T03:21:20.159Z,12.05
2024-02-21T03:23:47.522Z,11.50
2024-02-21T03:26:18.321Z,10.85
2024-02-21T03:28:48.630Z,10.25
2024-02-21T03:31:15.729Z,11.98
2024-02-21T03:33:44.810Z,11.65
2024-02-21T03:36:16.371Z,9.98
2024-02-21T03:38:43.565Z,12.95
2024-02-21T03:41:10.805Z,11.57
2024-02-21T03:43:40.308Z,11.43
2024-02-21T03:46:08.286Z,12.05
2024-02-21T03:48:35.562Z,12.07
2024-02-21T03:51:02.660Z,11.60
2024-02-21T03:53:29.807Z,11.77
2024-02-21T03:55:57.501Z,10.90
2024-02-21T03:58:24.688Z,11.45
2024-02-21T04:00:51.765Z,10.48
2024-02-21T04:03:18.988Z,10.45
2024-02-21T04:05:46.119Z,12.02
2024-02-21T04:08:13.254Z,9.98
2024-02-21T04:10:40.295Z,11.27
2024-02-21T04:13:08.186Z,11.50
2024-02-21T04:15:35.226Z,11.38
2024-02-21T04:18:02.774Z,11.10
2024-02-21T04:20:30.253Z,11.18
2024-02-21T04:22:57.900Z,11.05
2024-02-21T04:25:25.365Z,11.70
2024-02-21T04:27:52.661Z,12.23
2024-02-21T04:30:19.701Z,11.48
2024-02-21T04:32:46.763Z,13.85
2024-02-21T04:35:13.906Z,13.57
2024-02-21T04:37:41.201Z,16.15
2024-02-21T04:40:08.677Z,17.65
2024-02-21T04:42:35.904Z,20.50
2024-02-21T04:45:03.075Z,20.17
2024-02-21T04:47:30.256Z,18.67
2024-02-21T04:49:57.623Z,18.73
2024-02-21T04:52:24.802Z,23.50
2024-02-21T04:54:53.054Z,22.45
2024-02-21T04:57:20.123Z,23.55
2024-02-21T04:59:50.829Z,19.55
2024-02-21T05:02:18.122Z,19.45
2024-02-21T05:04:45.595Z,22.55
2024-02-21T05:07:13.266Z,20.83
2024-02-21T05:09:40.367Z,20.33
2024-02-21T05:12:07.895Z,19.08
2024-02-21T05:14:35.182Z,20.48
2024-02-21T05:17:02.673Z,21.75
2024-02-21T05:19:29.899Z,20.10
2024-02-21T05:21:57.030Z,20.77
2024-02-21T05:24:24.075Z,20.67
2024-02-21T05:26:51.198Z,20.83
2024-02-21T05:29:18.308Z,21.25
2024-02-21T05:32:04.019Z,23.20
2024-02-21T05:37:00.968Z,20.92
2024-02-21T05:39:28.226Z,24.45
2024-02-21T05:41:55.424Z,26.80
2024-02-21T05:44:23.554Z,30.02
2024-02-21T05:46:50.757Z,31.75
2024-02-21T05:49:18.273Z,34.88
2024-02-21T05:51:45.338Z,40.63
2024-02-21T05:54:12.420Z,43.58
2024-02-21T05:56:39.479Z,42.08
2024-02-21T05:59:06.804Z,44.58
2024-02-21T06:01:34.081Z,49.42
2024-02-21T06:04:01.313Z,48.03
2024-02-21T06:06:28.477Z,50.72
2024-02-21T06:08:55.751Z,52.15
2024-02-21T06:11:22.927Z,54.13
2024-02-21T06:13:50.068Z,61.97
2024-02-21T06:16:17.210Z,71.93
2024-02-21T06:18:44.267Z,70.95
2024-02-21T06:21:11.400Z,63.03
2024-02-21T06:23:38.609Z,53.13
2024-02-21T06:26:05.818Z,55.22
2024-02-21T06:28:32.951Z,44.95
2024-02-21T06:31:00.063Z,45.63
2024-02-21T06:33:27.296Z,48.67
2024-02-21T06:35:55.093Z,49.17
2024-02-21T06:38:22.326Z,53.33
2024-02-21T06:40:51.635Z,57.75
2024-02-21T06:43:21.238Z,57.65
2024-02-21T06:45:55.451Z,59.25
2024-02-21T06:48:22.733Z,55.83
2024-02-21T06:50:49.968Z,53.90
2024-02-21T06:53:17.224Z,52.08
2024-02-21T06:55:44.420Z,49.33
2024-02-21T06:58:13.435Z,53.10
2024-02-21T07:00:43.810Z,59.92
2024-02-21T07:03:10.909Z,61.53
2024-02-21T07:05:38.158Z,56.05
2024-02-21T07:08:05.512Z,56.40
2024-02-21T07:10:32.616Z,53.28
2024-02-21T07:12:59.738Z,53.45
2024-02-21T07:15:28.186Z,46.47
2024-02-21T07:17:55.436Z,44.58
2024-02-21T07:20:22.721Z,42.70
2024-02-21T07:22:49.939Z,37.08
2024-02-21T07:25:17.131Z,39.65
2024-02-21T07:27:45.462Z,35.83
2024-02-21T07:30:15.255Z,31.50
2024-02-21T07:32:44.572Z,29.73
2024-02-21T07:35:13.195Z,31.75
2024-02-21T07:37:40.629Z,28.73
2024-02-21T07:40:08.508Z,27.40
2024-02-21T07:42:35.549Z,24.10
2024-02-21T07:45:02.673Z,25.95
2024-02-21T07:47:29.800Z,24.25
2024-02-21T07:49:57.118Z,26.80
2024-02-21T07:52:24.247Z,25.38
2024-02-21T07:54:51.405Z,31.35
2024-02-21T07:57:18.485Z,27.85
2024-02-21T07:59:45.627Z,24.80
2024-02-21T08:02:13.002Z,26.95
2024-02-21T08:04:40.110Z,23.67
2024-02-21T08:07:07.260Z,20.75
2024-02-21T08:09:34.342Z,16.67
2024-02-21T08:12:01.529Z,13.40
2024-02-21T08:14:28.622Z,12.82
2024-02-21T08:16:56.824Z,16.75
2024-02-21T08:19:24.083Z,17.92
2024-02-21T08:21:51.267Z,15.95
2024-02-21T08:24:18.516Z,16.85
2024-02-21T08:26:46.162Z,17.25
2024-02-21T08:29:13.593Z,14.90
2024-02-21T08:31:40.761Z,14.75
2024-02-21T08:34:07.971Z,13.45
2024-02-21T08:36:36.250Z,14.35
2024-02-21T08:39:04.774Z,13.85
2024-02-21T08:41:47.826Z,13.45
2024-02-21T08:44:25.494Z,13.40
2024-02-21T08:46:52.677Z,12.82
2024-02-21T08:49:19.815Z,13.23
2024-02-21T08:51:48.026Z,11.57
2024-02-21T08:54:15.224Z,12.23
2024-02-21T08:56:42.571Z,11.65
2024-02-21T08:59:09.787Z,11.40
2024-02-21T09:01:37.368Z,11.57
2024-02-21T09:04:05.061Z,11.55
2024-02-21T09:06:34.739Z,10.63
2024-02-21T09:09:02.299Z,10.15
2024-02-21T09:11:29.795Z,11.40
2024-02-21T09:13:57.385Z,11.63
2024-02-21T09:16:24.948Z,11.82
2024-02-21T09:18:53.358Z,12.30
2024-02-21T09:21:20.409Z,12.38
2024-02-21T09:23:47.615Z,11.95
2024-02-21T09:26:17.560Z,12.98
2024-02-21T09:28:46.594Z,13.80
2024-02-21T09:31:13.749Z,15.93
2024-02-21T09:33:40.867Z,16.65
2024-02-21T09:36:08.165Z,18.80
2024-02-21T09:38:35.228Z,13.38
2024-02-21T09:41:31.130Z,13.45
2024-02-21T09:43:59.051Z,11.80
2024-02-21T09:47:09.252Z,14.35
2024-02-21T09:49:39.587Z,11.90
2024-02-21T09:52:08.781Z,13.43
2024-02-21T09:54:36.245Z,13.18
2024-02-21T09:57:04.745Z,13.57
2024-02-21T09:59:34.250Z,14.68
2024-02-21T10:02:04.385Z,15.35
2024-02-21T10:04:33.599Z,14.93
2024-02-21T10:07:00.876Z,14.75
2024-02-21T10:09:30.055Z,15.00
2024-02-21T10:12:08.838Z,13.77
2024-02-21T10:14:35.911Z,14.20
2024-02-21T10:17:04.203Z,16.27
2024-02-21T10:19:31.446Z,15.63
2024-02-21T10:22:01.421Z,15.35
2024-02-21T10:24:29.736Z,14.20
2024-02-21T10:27:03.284Z,15.43
2024-02-21T10:29:33.537Z,14.70
2024-02-21T10:32:14.328Z,13.90
2024-02-21T10:34:44.158Z,14.70
2024-02-21T10:37:12.461Z,12.88
2024-02-21T10:39:43.612Z,12.57
2024-02-21T10:42:13.658Z,11.98
2024-02-21T10:44:42.583Z,11.23
2024-02-21T10:47:18.320Z,10.20
2024-02-21T10:49:49.066Z,9.70
2024-02-21T10:52:43.549Z,10.27
2024-02-21T10:55:24.918Z,10.27
2024-02-21T10:57:53.383Z,10.13
2024-02-21T11:00:20.890Z,9.68
2024-02-21T11:02:50.322Z,10.25
2024-02-21T11:05:18.809Z,9.95
2024-02-21T11:07:46.066Z,11.45
2024-02-21T11:10:26.364Z,10.98
2024-02-21T11:13:12.656Z,11.05
2024-02-21T11:15:40.405Z,11.57
2024-02-21T11:18:07.744Z,11.02
2024-02-21T11:20:39.070Z,11.18
2024-02-21T11:23:06.468Z,11.15
2024-02-21T11:25:35.098Z,12.15
2024-02-21T11:28:04.411Z,10.48
2024-02-21T11:30:34.121Z,17.92
2024-02-21T11:33:05.294Z,18.80
2024-02-21T11:35:34.786Z,20.83
2024-02-21T11:38:16.389Z,22.67
2024-02-21T11:40:46.986Z,20.92
2024-02-21T11:43:14.243Z,19.70
2024-02-21T11:45:41.338Z,21.90
2024-02-21T11:48:08.918Z,19.73
2024-02-21T11:50:37.713Z,20.85
2024-02-21T11:53:05.167Z,20.13
2024-02-21T11:55:32.492Z,22.48
2024-02-21T11:57:59.662Z,20.02
2024-02-21T12:00:27.573Z,21.88
2024-02-21T12:02:56.979Z,20.02
2024-02-21T12:05:24.410Z,19.00
2024-02-21T12:07:51.774Z,19.25
2024-02-21T12:10:18.994Z,19.85
2024-02-21T12:12:46.080Z,22.73
2024-02-21T12:15:13.150Z,19.58
2024-02-21T12:17:41.822Z,18.85
2024-02-21T12:20:10.700Z,19.13
2024-02-21T12:22:39.501Z,17.60
2024-02-21T12:25:20.739Z,19.40
2024-02-21T12:27:48.445Z,19.00
2024-02-21T12:30:15.633Z,19.40
2024-02-21T12:32:42.750Z,19.10
2024-02-21T12:35:10.335Z,17.60
2024-02-21T12:37:40.280Z,18.65
2024-02-21T12:40:09.954Z,18.77
2024-02-21T12:42:37.229Z,20.35
2024-02-21T12:45:05.056Z,19.40
2024-02-21T12:47:32.320Z,19.15
2024-02-21T12:49:59.886Z,19.65
2024-02-21T12:52:27.405Z,19.23
2024-02-21T12:54:58.167Z,18.08
2024-02-21T12:57:27.320Z,18.50
2024-02-21T12:59:56.404Z,19.70
2024-02-21T13:02:23.734Z,19.48
2024-02-21T13:04:51.236Z,20.10
2024-02-21T13:07:18.424Z,19.80
2024-02-21T13:09:45.501Z,19.23
2024-02-21T13:12:13.539Z,18.17
2024-02-21T13:14:40.807Z,18.65
2024-02-21T13:17:08.149Z,20.42
2024-02-21T13:19:35.625Z,20.45
2024-02-21T13:22:03.942Z,18.80
2024-02-21T13:24:32.864Z,19.05
2024-02-21T13:27:00.007Z,20.77
2024-02-21T13:29:27.186Z,22.50
2024-02-21T13:31:54.301Z,19.80
2024-02-21T13:34:21.765Z,20.67
2024-02-21T13:36:49.185Z,21.55
2024-02-21T13:39:20.830Z,21.48
2024-02-21T13:41:49.573Z,20.70
2024-02-21T13:44:16.820Z,20.73
2024-02-21T13:46:45.305Z,18.83
2024-02-21T13:49:12.501Z,20.10
2024-02-21T13:51:39.742Z,20.00
2024-02-21T13:54:10.660Z,19.50
2024-02-21T13:56:38.162Z,17.17
2024-02-21T13:59:06.113Z,17.33
2024-02-21T14:01:33.798Z,16.70
2024-02-21T14:04:01.101Z,17.65
2024-02-21T14:06:33.679Z,17.20
2024-02-21T14:09:00.761Z,17.65
2024-02-21T14:11:32.090Z,18.40
2024-02-21T14:13:59.409Z,17.30
2024-02-21T14:16:26.935Z,18.13
2024-02-21T14:18:55.626Z,19.00
2024-02-21T14:21:23.069Z,19.10
2024-02-21T14:23:50.272Z,17.63
2024-02-21T14:26:20.203Z,18.73
2024-02-21T14:28:47.343Z,17.85
2024-02-21T14:31:14.689Z,15.10
2024-02-21T14:33:42.113Z,17.30
2024-02-21T14:36:09.681Z,14.75
2024-02-21T14:38:36.736Z,15.73
2024-02-21T14:41:04.015Z,17.05
2024-02-21T14:43:31.204Z,17.10
2024-02-21T14:45:58.228Z,16.85
2024-02-21T14:48:27.382Z,18.15
2024-02-21T14:50:54.515Z,15.75
2024-02-21T14:53:21.524Z,18.55
2024-02-21T14:55:48.647Z,16.92
2024-02-21T14:58:16.784Z,18.00
2024-02-21T15:00:43.997Z,18.52
2024-02-21T15:03:31.573Z,18.27
2024-02-21T15:05:58.768Z,18.88
2024-02-21T15:08:28.727Z,17.85
2024-02-21T15:10:56.241Z,17.23
2024-02-21T15:13:23.622Z,17.90
2024-02-21T15:15:52.741Z,18.35
2024-02-21T15:18:20.175Z,16.88
2024-02-21T15:20:47.470Z,16.50
2024-02-21T15:23:14.771Z,16.85
2024-02-21T15:25:41.979Z,16.30
2024-02-21T15:28:09.063Z,15.98
2024-02-21T15:30:37.195Z,18.20
2024-02-21T15:33:04.682Z,18.33
2024-02-21T15:35:32.490Z,17.13
2024-02-21T15:37:59.846Z,15.80
2024-02-21T15:40:27.007Z,16.75
2024-02-21T15:42:55.090Z,14.63
2024-02-21T15:45:22.790Z,17.10
2024-02-21T15:47:49.994Z,16.70
2024-02-21T15:50:17.280Z,17.58
2024-02-21T15:52:44.709Z,17.05
2024-02-21T15:55:13.610Z,16.85
2024-02-21T15:57:40.877Z,16.23
2024-02-21T16:00:13.494Z,15.40
2024-02-21T16:02:44.590Z,15.40
2024-02-21T16:05:12.367Z,16.75
2024-02-21T16:07:40.396Z,15.43
2024-02-21T16:10:08.552Z,14.93
2024-02-21T16:12:35.763Z,15.35
2024-02-21T16:15:03.048Z,15.57
2024-02-21T16:17:30.561Z,15.30
2024-02-21T16:19:59.337Z,15.73
2024-02-21T16:22:26.457Z,15.48
2024-02-21T16:24:54.887Z,14.85
2024-02-21T16:27:22.025Z,15.63
2024-02-21T16:29:49.132Z,14.63
2024-02-21T16:32:16.601Z,13.80
2024-02-21T16:34:43.702Z,14.80
2024-02-21T16:37:10.900Z,13.70
2024-02-21T16:39:37.963Z,15.10
2024-02-21T16:42:05.401Z,13.63
2024-02-21T16:44:32.575Z,15.70
2024-02-21T16:46:59.892Z,13.68
2024-02-21T16:49:27.186Z,14.18
2024-02-21T16:51:54.412Z,13.13
2024-02-21T16:54:26.799Z,13.23
2024-02-21T16:56:54.310Z,13.70
2024-02-21T16:59:22.402Z,13.95
2024-02-21T17:01:52.884Z,13.65
2024-02-21T17:04:20.448Z,14.52
2024-02-21T17:06:48.187Z,13.98
2024-02-21T17:09:19.148Z,13.35
2024-02-21T17:11:47.028Z,14.20
2024-02-21T17:14:14.375Z,14.90
2024-02-21T17:16:41.848Z,16.35
2024-02-21T17:19:11.194Z,16.23
2024-02-21T17:21:38.528Z,15.77
2024-02-21T17:24:06.025Z,15.27
2024-02-21T17:26:33.099Z,15.75
2024-02-21T17:29:02.344Z,16.65
2024-02-21T17:31:29.892Z,17.42
2024-02-21T17:33:57.390Z,16.52
2024-02-21T17:36:24.638Z,17.33
2024-02-21T17:38:55.022Z,18.38
2024-02-21T17:41:22.951Z,19.35
2024-02-21T17:43:50.519Z,19.17
2024-02-21T17:46:17.940Z,18.05
2024-02-21T17:48:45.155Z,19.95
2024-02-21T17:51:12.296Z,18.38
2024-02-21T17:53:39.476Z,19.27
2024-02-21T17:56:08.937Z,19.60
2024-02-21T17:58:36.240Z,19.67
2024-02-21T18:01:03.434Z,19.90
2024-02-21T18:03:31.653Z,20.73
2024-02-21T18:06:03.340Z,18.80
2024-02-21T18:08:31.471Z,19.48
2024-02-21T18:10:58.874Z,20.38
2024-02-21T18:13:26.226Z,20.38
2024-02-21T18:15:53.545Z,18.27
2024-02-21T18:18:20.789Z,18.20
2024-02-21T18:20:48.225Z,19.35
2024-02-21T18:23:16.876Z,19.15
2024-02-21T18:25:44.960Z,19.40
2024-02-21T18:28:12.083Z,18.45
2024-02-21T18:30:39.238Z,19.50
2024-02-21T18:33:06.335Z,18.63
2024-02-21T18:35:33.667Z,19.67
2024-02-21T18:38:03.483Z,16.60
2024-02-21T18:40:30.803Z,17.73
2024-02-21T18:42:59.098Z,16.77
2024-02-21T18:45:27.079Z,16.95
2024-02-21T18:47:54.396Z,16.75
2024-02-21T18:50:21.800Z,16.77
2024-02-21T18:52:53.576Z,16.20
2024-02-21T18:55:21.057Z,16.65
2024-02-21T18:57:48.162Z,17.30
2024-02-21T19:00:18.248Z,17.40
2024-02-21T19:02:45.628Z,18.17
2024-02-21T19:05:12.935Z,16.92
2024-02-21T19:07:40.209Z,17.83
2024-02-21T19:10:07.805Z,17.52
2024-02-21T19:12:34.919Z,17.63
2024-02-21T19:15:02.201Z,17.73
2024-02-21T19:17:30.040Z,16.75
2024-02-21T19:19:57.260Z,18.15
2024-02-21T19:22:26.222Z,18.15
2024-02-21T19:24:53.479Z,17.45
2024-02-21T19:27:20.564Z,17.88
2024-02-21T19:29:47.657Z,17.88
2024-02-21T19:32:16.211Z,17.58
2024-02-21T19:34:44.355Z,18.80
2024-02-21T19:37:11.614Z,19.30
2024-02-21T19:39:38.964Z,20.67
2024-02-21T19:42:06.510Z,21.15
2024-02-21T19:44:33.922Z,21.95
2024-02-21T19:47:01.203Z,21.33
2024-02-21T19:49:28.332Z,21.15
2024-02-21T19:51:55.394Z,20.70
2024-02-21T19:54:25.136Z,20.02
2024-02-21T19:56:52.775Z,19.75
2024-02-21T19:59:20.387Z,18.42
2024-02-21T20:01:47.759Z,18.02
2024-02-21T20:04:15.028Z,18.90
2024-02-21T20:06:42.090Z,19.38
2024-02-21T20:09:10.390Z,18.90
2024-02-21T20:11:41.596Z,18.80
2024-02-21T20:14:09.481Z,19.13
2024-02-21T20:16:37.694Z,19.15
2024-02-21T20:19:05.625Z,19.50
2024-02-21T20:21:32.834Z,17.65
2024-02-21T20:24:00.004Z,19.05
2024-02-21T20:26:27.133Z,17.95
2024-02-21T20:28:54.368Z,17.67
2024-02-21T20:31:22.956Z,19.17
2024-02-21T20:33:50.395Z,20.00
2024-02-21T20:36:17.586Z,19.70
2024-02-21T20:38:45.173Z,21.83
2024-02-21T20:41:19.192Z,19.98
2024-02-21T20:43:47.152Z,22.10
2024-02-21T20:46:14.411Z,20.33
2024-02-21T20:48:41.438Z,20.70
2024-02-21T20:51:09.124Z,19.83
2024-02-21T20:53:36.417Z,19.85
2024-02-21T20:56:04.396Z,20.25
2024-02-21T20:58:31.675Z,19.10
2024-02-21T21:00:59.511Z,19.85
2024-02-21T21:03:29.197Z,19.35
2024-02-21T21:05:57.582Z,19.80
2024-02-21T21:08:24.695Z,19.17
2024-02-21T21:10:51.815Z,18.58
2024-02-21T21:13:26.768Z,17.40
2024-02-21T21:15:58.182Z,19.48
2024-02-21T21:18:27.267Z,18.98
2024-02-21T21:20:54.718Z,17.33
2024-02-21T21:23:22.013Z,18.63
2024-02-21T21:25:49.215Z,17.48
2024-02-21T21:28:16.340Z,18.08
2024-02-21T21:30:43.500Z,18.02
2024-02-21T21:33:10.778Z,18.25
2024-02-21T21:35:39.156Z,18.10
2024-02-21T21:38:06.580Z,17.70
2024-02-21T21:40:33.830Z,18.50
2024-02-21T21:43:01.039Z,17.63
2024-02-21T21:45:28.497Z,18.50
2024-02-21T21:47:55.590Z,18.63
2024-02-21T21:50:23.664Z,19.58
2024-02-21T21:52:51.048Z,21.40
2024-02-21T21:55:18.181Z,22.23
2024-02-21T21:57:48.558Z,21.92
2024-02-21T22:00:16.183Z,19.23
2024-02-21T22:02:48.197Z,19.75
2024-02-21T22:05:16.756Z,18.98
2024-02-21T22:07:44.147Z,20.83
2024-02-21T22:10:11.407Z,20.15
2024-02-21T22:12:38.516Z,18.60
2024-02-21T22:15:06.496Z,18.80
2024-02-21T22:17:34.109Z,22.45
2024-02-21T22:20:01.331Z,20.52
2024-02-21T22:22:28.533Z,19.45
2024-02-21T22:24:55.654Z,25.30
2024-02-21T22:27:22.781Z,21.60
2024-02-21T22:29:50.449Z,21.05
2024-02-21T22:32:17.509Z,18.50
2024-02-21T22:34:44.737Z,18.70
2024-02-21T22:37:11.864Z,18.58
2024-02-21T22:39:38.985Z,17.23
2024-02-21T22:42:07.074Z,18.40
2024-02-21T22:44:34.252Z,18.17
2024-02-21T22:47:01.330Z,18.60
2024-02-21T22:49:28.446Z,19.50
2024-02-21T22:51:56.899Z,17.85
2024-02-21T22:54:25.942Z,17.95
2024-02-21T22:56:53.033Z,18.63
2024-02-21T22:59:20.112Z,19.65
2024-02-21T23:01:47.201Z,20.77
2024-02-21T23:04:14.688Z,20.30
2024-02-21T23:06:41.710Z,20.75
2024-02-21T23:09:09.561Z,20.20
2024-02-21T23:11:36.876Z,20.85
2024-02-21T23:14:05.239Z,21.48
2024-02-21T23:16:32.321Z,19.83
2024-02-21T23:18:59.547Z,20.38
2024-02-21T23:21:26.651Z,20.20
2024-02-21T23:23:53.750Z,18.42
2024-02-21T23:26:32.281Z,20.33
2024-02-21T23:29:00.031Z,20.50
2024-02-21T23:31:27.765Z,20.85
2024-02-21T23:33:55.058Z,21.88
2024-02-21T23:36:22.328Z,20.70
2024-02-21T23:38:49.346Z,22.27
2024-02-21T23:41:17.665Z,21.75
2024-02-21T23:43:45.718Z,21.90
2024-02-21T23:46:12.936Z,22.95
2024-02-21T23:48:40.926Z,22.10
2024-02-21T23:51:08.073Z,21.95
2024-02-21T23:53:35.190Z,22.70
2024-02-21T23:56:04.481Z,22.73
2024-02-21T23:58:31.739Z,21.33
